Articles

Rainfall Radar

Share
 
 
Share

Trim Flying Club goes to the Aran Islands

Learn to fly at Trim Flying Club

Rainfall Radar Now

Atlantic Charts Pressure - Today

Atlantic Charts Rainfall - Today

 
 

Atlantic Charts Pressure - Tomorrow

Sunrise Sunset

Click for Dublin, Ireland Forecast

Aviation WX Dublin EIDW

[source: ADDS]
METAR
EIDW 012300Z 30004KT 280V340 9999 BKN038 13/10 Q1024 NOSIG =
TAF
TAF EIDW 012300Z 0200/0224 30004KT 9999 FEW020 BKN035 BECMG 0209/0211 11007KT BECMG 0219/0221 VRB03KT TEMPO 0222/0224 4000 BR =